createdAt,value
2023-02-04T00:00:21.727Z,-3.96
2023-02-04T00:02:50.115Z,-4.03
2023-02-04T00:05:18.697Z,-4.07
2023-02-04T00:07:46.533Z,-4.10
2023-02-04T00:10:14.291Z,-4.14
2023-02-04T00:12:41.754Z,-4.25
2023-02-04T00:15:11.036Z,-4.30
2023-02-04T00:17:39.691Z,-4.30
2023-02-04T00:20:07.788Z,-4.42
2023-02-04T00:22:35.260Z,-4.43
2023-02-04T00:25:03.016Z,-4.41
2023-02-04T00:27:31.220Z,-4.43
2023-02-04T00:30:02.007Z,-4.43
2023-02-04T00:32:31.527Z,-4.43
2023-02-04T00:34:59.063Z,-4.38
2023-02-04T00:37:26.614Z,-4.37
2023-02-04T00:39:54.128Z,-4.39
2023-02-04T00:42:21.589Z,-4.44
2023-02-04T00:44:49.189Z,-4.45
2023-02-04T00:47:17.840Z,-4.45
2023-02-04T00:49:45.369Z,-4.46
2023-02-04T00:52:12.911Z,-4.51
2023-02-04T00:54:41.415Z,-4.56
2023-02-04T00:57:08.896Z,-4.61
2023-02-04T00:59:36.344Z,-4.62
2023-02-04T01:02:03.858Z,-4.76
2023-02-04T01:04:31.374Z,-4.83
2023-02-04T01:06:59.035Z,-5.01
2023-02-04T01:09:27.454Z,-4.93
2023-02-04T01:11:55.043Z,-4.96
2023-02-04T01:14:22.550Z,-4.97
2023-02-04T01:16:50.166Z,-5.00
2023-02-04T01:19:17.669Z,-4.96
2023-02-04T01:21:45.184Z,-4.94
2023-02-04T01:24:13.043Z,-4.88
2023-02-04T01:26:58.987Z,-4.87
2023-02-04T01:29:26.535Z,-4.90
2023-02-04T01:31:54.055Z,-4.84
2023-02-04T01:34:22.067Z,-4.87
2023-02-04T01:36:49.673Z,-4.85
2023-02-04T01:39:18.192Z,-4.85
2023-02-04T01:41:47.528Z,-4.77
2023-02-04T01:44:15.082Z,-4.74
2023-02-04T01:46:42.947Z,-4.71
2023-02-04T01:49:11.624Z,-4.71
2023-02-04T01:51:39.800Z,-4.71
2023-02-04T01:54:12.426Z,-4.66
2023-02-04T01:56:43.371Z,-4.66
2023-02-04T01:59:15.586Z,-4.65
2023-02-04T02:01:46.634Z,-4.60
2023-02-04T02:04:21.010Z,-4.58
2023-02-04T02:06:55.707Z,-4.56
2023-02-04T02:09:23.893Z,-4.58
2023-02-04T02:11:51.687Z,-4.57
2023-02-04T02:14:20.264Z,-4.58
2023-02-04T02:16:47.951Z,-4.57
2023-02-04T02:19:24.629Z,-4.49
2023-02-04T02:22:07.441Z,-4.49
2023-02-04T02:24:36.344Z,-4.48
2023-02-04T02:27:08.685Z,-4.43
2023-02-04T02:29:38.907Z,-4.45
2023-02-04T02:32:06.922Z,-4.47
2023-02-04T02:34:35.490Z,-4.47
2023-02-04T02:37:04.873Z,-4.41
2023-02-04T02:39:33.078Z,-4.43
2023-02-04T02:42:00.809Z,-4.52
2023-02-04T02:44:30.488Z,-4.36
2023-02-04T02:46:58.381Z,-4.37
2023-02-04T02:49:27.577Z,-4.33
2023-02-04T02:51:55.283Z,-4.34
2023-02-04T02:54:32.763Z,-4.23
2023-02-04T02:57:03.437Z,-4.31
2023-02-04T02:59:31.013Z,-4.28
2023-02-04T03:02:02.385Z,-4.24
2023-02-04T03:04:38.778Z,-4.21
2023-02-04T03:07:07.952Z,-4.18
2023-02-04T03:09:36.444Z,-4.16
2023-02-04T03:12:06.477Z,-4.14
2023-02-04T03:14:38.564Z,-4.14
2023-02-04T03:17:09.506Z,-4.11
2023-02-04T03:19:38.223Z,-4.14
2023-02-04T03:22:07.299Z,-4.11
2023-02-04T03:24:36.503Z,-4.13
2023-02-04T03:27:04.847Z,-4.17
2023-02-04T03:29:32.488Z,-4.19
2023-02-04T03:32:06.753Z,-4.27
2023-02-04T03:34:34.183Z,-4.29
2023-02-04T03:37:01.738Z,-4.30
2023-02-04T03:39:29.520Z,-4.37
2023-02-04T03:41:56.995Z,-4.41
2023-02-04T03:44:27.157Z,-4.48
2023-02-04T03:46:55.903Z,-4.48
2023-02-04T03:49:24.188Z,-4.56
2023-02-04T03:51:52.244Z,-4.60
2023-02-04T03:54:19.834Z,-4.70
2023-02-04T03:56:47.462Z,-4.70
2023-02-04T03:59:14.985Z,-4.75
2023-02-04T04:01:42.586Z,-4.81
2023-02-04T04:04:10.308Z,-4.80
2023-02-04T04:06:37.978Z,-4.74
2023-02-04T04:09:05.591Z,-4.74
2023-02-04T04:11:33.164Z,-4.52
2023-02-04T04:14:01.645Z,-4.41
2023-02-04T04:16:29.418Z,-4.28
2023-02-04T04:18:57.134Z,-4.15
2023-02-04T04:21:24.674Z,-4.02
2023-02-04T04:23:52.194Z,-3.82
2023-02-04T04:26:20.395Z,-3.65
2023-02-04T04:28:48.036Z,-3.47
2023-02-04T04:31:15.832Z,-3.20
2023-02-04T04:33:44.213Z,-2.97
2023-02-04T04:36:11.874Z,-2.72
2023-02-04T04:38:39.398Z,-2.43
2023-02-04T04:41:06.979Z,-2.19
2023-02-04T04:43:34.469Z,-1.92
2023-02-04T04:46:02.417Z,-1.62
2023-02-04T04:48:31.840Z,-1.34
2023-02-04T04:50:59.484Z,-1.06
2023-02-04T04:53:27.053Z,-0.77
2023-02-04T04:55:54.694Z,-0.43
2023-02-04T04:58:22.348Z,-0.07
2023-02-04T05:00:49.827Z,0.26
2023-02-04T05:03:17.308Z,0.67
2023-02-04T05:05:44.849Z,1.01
2023-02-04T05:08:14.424Z,1.35
2023-02-04T05:10:42.355Z,1.67
2023-02-04T05:13:10.412Z,1.99
2023-02-04T05:15:38.161Z,2.36
2023-02-04T05:18:06.068Z,2.71
2023-02-04T05:20:34.835Z,3.04
2023-02-04T05:23:05.155Z,3.42
2023-02-04T05:25:33.651Z,3.77
2023-02-04T05:28:01.383Z,4.12
2023-02-04T05:30:29.187Z,4.47
2023-02-04T05:32:56.746Z,4.82
2023-02-04T05:35:24.650Z,5.13
2023-02-04T05:37:52.161Z,5.38
2023-02-04T05:40:19.759Z,5.72
2023-02-04T05:42:47.249Z,6.03
2023-02-04T05:45:16.627Z,6.26
2023-02-04T05:47:44.219Z,6.61
2023-02-04T05:50:12.185Z,6.90
2023-02-04T05:52:40.521Z,7.15
2023-02-04T05:55:10.744Z,7.36
2023-02-04T05:57:39.724Z,7.66
2023-02-04T06:00:08.377Z,7.91
2023-02-04T06:02:41.754Z,8.01
2023-02-04T06:05:12.233Z,8.36
2023-02-04T06:07:39.840Z,8.55
2023-02-04T06:10:11.940Z,8.59
2023-02-04T06:12:42.858Z,9.01
2023-02-04T06:15:11.121Z,9.28
2023-02-04T06:17:38.927Z,9.47
2023-02-04T06:20:07.478Z,9.71
2023-02-04T06:22:35.077Z,9.91
2023-02-04T06:25:02.704Z,10.10
2023-02-04T06:27:30.980Z,10.32
2023-02-04T06:29:58.881Z,10.45
2023-02-04T06:32:28.282Z,10.72
2023-02-04T06:34:56.437Z,10.75
2023-02-04T06:37:24.474Z,11.09
2023-02-04T06:39:52.498Z,11.31
2023-02-04T06:42:20.195Z,11.52
2023-02-04T06:44:47.811Z,11.75
2023-02-04T06:47:15.281Z,11.94
2023-02-04T06:49:42.936Z,12.15
2023-02-04T06:52:10.593Z,12.33
2023-02-04T06:54:38.623Z,12.55
2023-02-04T06:57:12.550Z,12.74
2023-02-04T06:59:40.536Z,12.40
2023-02-04T07:02:11.418Z,12.91
2023-02-04T07:04:41.441Z,13.09
2023-02-04T07:07:09.111Z,13.17
2023-02-04T07:09:36.605Z,13.31
2023-02-04T07:12:05.384Z,13.18
2023-02-04T07:14:33.067Z,13.47
2023-02-04T07:17:00.692Z,13.56
2023-02-04T07:19:28.402Z,13.63
2023-02-04T07:21:57.296Z,13.63
2023-02-04T07:24:25.460Z,13.74
2023-02-04T07:26:53.026Z,13.78
2023-02-04T07:29:25.687Z,13.78
2023-02-04T07:31:54.258Z,13.68
2023-02-04T07:34:22.012Z,13.59
2023-02-04T07:36:49.696Z,13.43
2023-02-04T07:39:17.188Z,13.28
2023-02-04T07:41:44.708Z,13.03
2023-02-04T07:44:14.630Z,12.97
2023-02-04T07:46:42.168Z,12.79
2023-02-04T07:49:09.822Z,12.68
2023-02-04T07:51:37.801Z,12.51
2023-02-04T07:54:06.149Z,12.31
2023-02-04T07:56:34.135Z,12.12
2023-02-04T07:59:02.938Z,11.97
2023-02-04T08:01:35.491Z,11.79
2023-02-04T08:04:03.057Z,11.61
2023-02-04T08:06:30.754Z,11.38
2023-02-04T08:08:59.065Z,11.07
2023-02-04T08:11:27.630Z,10.71
2023-02-04T08:13:55.226Z,10.49
2023-02-04T08:16:22.851Z,10.14
2023-02-04T08:18:50.336Z,9.73
2023-02-04T08:21:19.386Z,9.40
2023-02-04T08:23:47.821Z,9.07
2023-02-04T08:26:15.452Z,8.80
2023-02-04T08:28:42.943Z,8.53
2023-02-04T08:31:13.591Z,8.23
2023-02-04T08:33:41.224Z,7.90
2023-02-04T08:36:09.272Z,7.58
2023-02-04T08:38:36.927Z,7.33
2023-02-04T08:41:04.864Z,7.15
2023-02-04T08:43:32.324Z,6.99
2023-02-04T08:45:59.943Z,6.82
2023-02-04T08:48:27.535Z,6.63
2023-02-04T08:50:54.994Z,6.44
2023-02-04T08:53:22.566Z,6.26
2023-02-04T08:55:50.061Z,6.06
2023-02-04T08:58:17.633Z,5.94
2023-02-04T09:00:45.328Z,5.79
2023-02-04T09:03:12.985Z,5.64
2023-02-04T09:05:40.493Z,5.51
2023-02-04T09:08:08.050Z,5.46
2023-02-04T09:10:35.633Z,5.37
2023-02-04T09:13:04.419Z,5.19
2023-02-04T09:15:31.843Z,5.06
2023-02-04T09:18:11.564Z,4.92
2023-02-04T09:20:39.501Z,4.66
2023-02-04T09:23:15.595Z,4.56
2023-02-04T09:25:44.643Z,4.29
2023-02-04T09:28:13.700Z,4.09
2023-02-04T09:30:42.442Z,3.94
2023-02-04T09:33:11.804Z,3.89
2023-02-04T09:35:39.705Z,3.70
2023-02-04T09:38:07.283Z,3.56
2023-02-04T09:40:41.290Z,3.50
2023-02-04T09:43:14.717Z,3.45
2023-02-04T09:45:44.567Z,3.25
2023-02-04T09:48:15.019Z,3.19
2023-02-04T09:50:42.758Z,3.05
2023-02-04T09:53:18.216Z,3.05
2023-02-04T09:55:48.026Z,2.67
2023-02-04T09:58:21.005Z,2.62
2023-02-04T10:00:57.341Z,2.50
2023-02-04T10:03:25.343Z,2.43
2023-02-04T10:05:54.001Z,2.45
2023-02-04T10:08:29.825Z,2.48
2023-02-04T10:11:00.196Z,2.39
2023-02-04T10:13:34.258Z,2.27
2023-02-04T10:16:02.294Z,2.24
2023-02-04T10:18:33.240Z,2.17
2023-02-04T10:21:17.566Z,2.21
2023-02-04T10:23:48.962Z,2.11
2023-02-04T10:26:29.047Z,2.14
2023-02-04T10:29:08.214Z,2.07
2023-02-04T10:31:40.471Z,2.05
2023-02-04T10:34:13.563Z,2.03
2023-02-04T10:36:43.147Z,2.00
2023-02-04T10:39:15.072Z,2.08
2023-02-04T10:41:49.729Z,2.11
2023-02-04T10:44:20.512Z,1.99
2023-02-04T10:46:48.748Z,1.91
2023-02-04T10:49:26.789Z,1.97
2023-02-04T10:51:54.558Z,1.77
2023-02-04T10:54:39.744Z,1.78
2023-02-04T10:57:23.645Z,1.77
2023-02-04T10:59:55.495Z,1.63
2023-02-04T11:02:52.321Z,1.70
2023-02-04T11:05:23.719Z,1.40
2023-02-04T11:07:54.430Z,1.39
2023-02-04T11:10:39.731Z,1.29
2023-02-04T11:13:07.762Z,1.25
2023-02-04T11:16:19.532Z,1.25
2023-02-04T11:18:58.252Z,1.06
2023-02-04T11:21:34.667Z,0.83
2023-02-04T11:24:14.368Z,0.82
2023-02-04T11:26:51.679Z,0.49
2023-02-04T11:29:39.019Z,0.39
2023-02-04T11:32:28.419Z,0.23
2023-02-04T11:35:16.215Z,0.28
2023-02-04T11:37:45.388Z,0.02
2023-02-04T11:40:28.146Z,0.00
2023-02-04T11:43:16.449Z,-0.08
2023-02-04T11:45:44.307Z,-0.36
2023-02-04T11:48:19.259Z,-0.48
2023-02-04T11:51:01.080Z,-0.48
2023-02-04T11:53:34.077Z,-0.66
2023-02-04T11:56:01.707Z,-0.87
2023-02-04T11:58:31.345Z,-1.19
2023-02-04T12:00:59.758Z,-1.35
2023-02-04T12:03:30.818Z,-1.60
2023-02-04T12:05:59.588Z,-1.85
2023-02-04T12:08:37.019Z,-1.94
2023-02-04T12:11:26.223Z,-2.02
2023-02-04T12:13:56.711Z,-2.15
2023-02-04T12:16:24.745Z,-2.43
2023-02-04T12:18:52.498Z,-2.44
2023-02-04T12:21:20.319Z,-2.64
2023-02-04T12:23:47.780Z,-2.65
2023-02-04T12:26:15.375Z,-2.73
2023-02-04T12:28:43.153Z,-2.59
2023-02-04T12:31:10.634Z,-2.76
2023-02-04T12:33:38.235Z,-2.73
2023-02-04T12:36:06.048Z,-2.69
2023-02-04T12:38:33.597Z,-2.81
2023-02-04T12:41:01.075Z,-2.79
2023-02-04T12:43:28.735Z,-2.94
2023-02-04T12:45:56.354Z,-2.95
2023-02-04T12:48:23.981Z,-2.90
2023-02-04T12:50:51.502Z,-2.86
2023-02-04T12:53:18.971Z,-2.99
2023-02-04T12:55:46.499Z,-2.98
2023-02-04T12:58:14.108Z,-3.17
2023-02-04T13:00:42.512Z,-3.10
2023-02-04T13:03:10.012Z,-3.41
2023-02-04T13:05:37.577Z,-3.33
2023-02-04T13:08:05.347Z,-3.41
2023-02-04T13:10:32.892Z,-3.47
2023-02-04T13:13:02.405Z,-3.51
2023-02-04T13:15:31.888Z,-3.52
2023-02-04T13:17:59.632Z,-3.57
2023-02-04T13:20:27.170Z,-3.61
2023-02-04T13:22:54.723Z,-3.92
2023-02-04T13:25:22.198Z,-3.82
2023-02-04T13:27:49.774Z,-3.73
2023-02-04T13:30:17.585Z,-3.86
2023-02-04T13:32:46.100Z,-3.75
2023-02-04T13:35:13.571Z,-3.79
2023-02-04T13:37:41.081Z,-3.87
2023-02-04T13:40:09.826Z,-3.83
2023-02-04T13:42:37.428Z,-3.76
2023-02-04T13:45:07.900Z,-3.84
2023-02-04T13:47:35.436Z,-3.96
2023-02-04T13:50:02.898Z,-3.96
2023-02-04T13:52:30.632Z,-4.06
2023-02-04T13:54:58.226Z,-4.16
2023-02-04T13:57:25.725Z,-4.14
2023-02-04T13:59:53.575Z,-4.20
2023-02-04T14:02:24.309Z,-4.45
2023-02-04T14:04:52.027Z,-4.27
2023-02-04T14:07:19.516Z,-4.33
2023-02-04T14:09:48.808Z,-4.83
2023-02-04T14:12:16.414Z,-4.87
2023-02-04T14:14:44.008Z,-4.68
2023-02-04T14:17:11.531Z,-4.69
2023-02-04T14:19:39.100Z,-4.96
2023-02-04T14:22:06.683Z,-4.78
2023-02-04T14:24:34.588Z,-4.58
2023-02-04T14:27:07.472Z,-4.78
2023-02-04T14:29:35.270Z,-4.72
2023-02-04T14:32:02.769Z,-4.68
2023-02-04T14:34:30.413Z,-4.60
2023-02-04T14:36:58.045Z,-4.70
2023-02-04T14:39:25.595Z,-4.72
2023-02-04T14:41:53.236Z,-4.74
2023-02-04T14:44:21.198Z,-5.06
2023-02-04T14:46:49.422Z,-5.13
2023-02-04T14:49:17.767Z,-5.41
2023-02-04T14:51:45.388Z,-5.45
2023-02-04T14:54:12.948Z,-5.43
2023-02-04T14:56:40.562Z,-5.66
2023-02-04T14:59:08.239Z,-5.78
2023-02-04T15:01:35.894Z,-5.60
2023-02-04T15:04:03.574Z,-5.75
2023-02-04T15:06:31.064Z,-5.65
2023-02-04T15:08:58.644Z,-5.85
2023-02-04T15:11:26.105Z,-5.81
2023-02-04T15:13:53.629Z,-6.14
2023-02-04T15:16:21.113Z,-6.11
2023-02-04T15:18:48.788Z,-5.98
2023-02-04T15:21:31.760Z,-5.97
2023-02-04T15:24:01.550Z,-5.93
2023-02-04T15:26:29.054Z,-5.86
2023-02-04T15:28:56.531Z,-5.80
2023-02-04T15:31:25.468Z,-5.90
2023-02-04T15:33:53.770Z,-5.92
2023-02-04T15:36:21.343Z,-6.06
2023-02-04T15:39:21.050Z,-6.05
2023-02-04T15:41:48.516Z,-5.96
2023-02-04T15:44:16.080Z,-5.89
2023-02-04T15:46:43.520Z,-5.88
2023-02-04T15:49:28.032Z,-6.25
2023-02-04T15:51:55.605Z,-6.55
2023-02-04T15:58:18.118Z,-6.51
2023-02-04T16:00:53.924Z,-6.71
2023-02-04T16:03:22.392Z,-6.45
2023-02-04T16:05:52.116Z,-6.68
2023-02-04T16:08:19.584Z,-6.58
2023-02-04T16:10:52.469Z,-6.69
2023-02-04T16:13:20.314Z,-6.51
2023-02-04T16:15:47.829Z,-6.53
2023-02-04T16:18:15.384Z,-6.39
2023-02-04T16:20:42.881Z,-6.48
2023-02-04T16:23:10.363Z,-6.34
2023-02-04T16:25:37.975Z,-6.31
2023-02-04T16:28:05.638Z,-6.31
2023-02-04T16:30:33.374Z,-6.18
2023-02-04T16:33:00.855Z,-6.23
2023-02-04T16:35:30.477Z,-6.05
2023-02-04T16:38:01.156Z,-5.97
2023-02-04T16:40:29.614Z,-6.06
2023-02-04T16:42:57.120Z,-6.27
2023-02-04T16:45:24.650Z,-6.25
2023-02-04T16:47:52.133Z,-6.41
2023-02-04T16:50:22.467Z,-6.31
2023-02-04T16:52:49.948Z,-6.42
2023-02-04T16:55:17.515Z,-6.42
2023-02-04T16:57:45.100Z,-6.57
2023-02-04T17:00:13.143Z,-6.74
2023-02-04T17:02:40.710Z,-6.84
2023-02-04T17:05:08.491Z,-6.97
2023-02-04T17:07:36.037Z,-6.95
2023-02-04T17:10:04.009Z,-7.27
2023-02-04T17:12:31.662Z,-7.28
2023-02-04T17:15:28.327Z,-7.02
2023-02-04T17:18:39.873Z,-7.07
2023-02-04T17:21:08.559Z,-7.01
2023-02-04T17:23:36.188Z,-6.88
2023-02-04T17:26:03.825Z,-6.93
2023-02-04T17:28:31.378Z,-7.13
2023-02-04T17:30:59.175Z,-6.93
2023-02-04T17:33:26.929Z,-7.16
2023-02-04T17:35:54.518Z,-7.20
2023-02-04T17:38:22.661Z,-7.28
2023-02-04T17:40:50.535Z,-7.24
2023-02-04T17:43:18.418Z,-7.20
2023-02-04T17:45:45.882Z,-7.17
2023-02-04T17:48:13.840Z,-7.29
2023-02-04T17:50:43.543Z,-7.38
2023-02-04T17:53:12.063Z,-7.25
2023-02-04T17:55:43.310Z,-7.32
2023-02-04T17:58:31.697Z,-7.29
2023-02-04T18:01:16.325Z,-7.24
2023-02-04T18:03:46.743Z,-7.29
2023-02-04T18:06:30.325Z,-7.41
2023-02-04T18:09:44.251Z,-7.36
2023-02-04T18:12:16.723Z,-7.38
2023-02-04T18:15:19.704Z,-7.73
2023-02-04T18:17:47.261Z,-7.51
2023-02-04T18:20:18.924Z,-7.51
2023-02-04T18:22:50.779Z,-7.38
2023-02-04T18:25:20.831Z,-7.15
2023-02-04T18:27:48.409Z,-7.28
2023-02-04T18:30:22.443Z,-7.37
2023-02-04T18:32:51.391Z,-7.47
2023-02-04T18:35:51.860Z,-7.46
2023-02-04T18:38:39.827Z,-7.29
2023-02-04T18:41:19.409Z,-7.40
2023-02-04T18:44:04.020Z,-7.40
2023-02-04T18:46:39.825Z,-7.46
2023-02-04T18:49:32.922Z,-7.25
2023-02-04T18:52:20.836Z,-7.10
2023-02-04T18:54:56.792Z,-7.05
2023-02-04T18:57:38.243Z,-7.20
2023-02-04T19:00:12.519Z,-7.13
2023-02-04T19:02:47.038Z,-7.18
2023-02-04T19:05:26.677Z,-7.21
2023-02-04T19:08:21.387Z,-7.11
2023-02-04T19:10:50.103Z,-7.35
2023-02-04T19:13:26.247Z,-7.44
2023-02-04T19:15:56.916Z,-7.33
2023-02-04T19:18:28.713Z,-7.38
2023-02-04T19:21:01.674Z,-7.42
2023-02-04T19:23:37.919Z,-7.36
2023-02-04T19:26:28.222Z,-7.35
2023-02-04T19:28:56.448Z,-7.62
2023-02-04T19:31:34.760Z,-7.68
2023-02-04T19:34:28.287Z,-7.84
2023-02-04T19:36:56.058Z,-7.83
2023-02-04T19:39:35.565Z,-7.75
2023-02-04T19:42:36.632Z,-7.92
2023-02-04T19:45:25.759Z,-7.83
2023-02-04T19:47:57.645Z,-7.75
2023-02-04T19:50:26.950Z,-7.69
2023-02-04T19:53:22.678Z,-7.61
2023-02-04T19:55:54.388Z,-7.70
2023-02-04T19:58:28.847Z,-7.84
2023-02-04T20:01:03.368Z,-7.96
2023-02-04T20:03:37.150Z,-7.96
2023-02-04T20:06:10.766Z,-7.91
2023-02-04T20:08:41.207Z,-8.06
2023-02-04T20:11:35.423Z,-8.02
2023-02-04T20:14:15.293Z,-7.98
2023-02-04T20:16:59.498Z,-7.95
2023-02-04T20:19:29.303Z,-7.98
2023-02-04T20:22:57.245Z,-7.99
2023-02-04T20:25:48.529Z,-7.88
2023-02-04T20:28:23.914Z,-7.84
2023-02-04T20:30:52.258Z,-7.83
2023-02-04T20:33:27.330Z,-8.11
2023-02-04T20:36:23.050Z,-8.27
2023-02-04T20:38:50.673Z,-8.49
2023-02-04T20:41:20.640Z,-8.40
2023-02-04T20:43:51.908Z,-8.33
2023-02-04T20:46:26.000Z,-8.31
2023-02-04T20:48:53.664Z,-8.33
2023-02-04T20:51:27.204Z,-8.45
2023-02-04T20:53:58.602Z,-8.51
2023-02-04T20:56:35.862Z,-8.46
2023-02-04T20:59:12.424Z,-8.38
2023-02-04T21:01:45.073Z,-8.41
2023-02-04T21:04:37.274Z,-8.33
2023-02-04T21:07:19.842Z,-8.29
2023-02-04T21:09:48.505Z,-8.27
2023-02-04T21:12:16.277Z,-8.14
2023-02-04T21:14:43.813Z,-8.17
2023-02-04T21:17:11.392Z,-8.28
2023-02-04T21:19:38.859Z,-8.24
2023-02-04T21:22:06.315Z,-8.28
2023-02-04T21:24:34.069Z,-8.28
2023-02-04T21:27:01.702Z,-8.30
2023-02-04T21:29:29.236Z,-8.33
2023-02-04T21:31:56.847Z,-8.32
2023-02-04T21:34:24.308Z,-8.58
2023-02-04T21:36:51.845Z,-9.02
2023-02-04T21:39:20.977Z,-8.90
2023-02-04T21:42:08.411Z,-8.90
2023-02-04T21:44:39.000Z,-8.96
2023-02-04T21:47:06.733Z,-8.89
2023-02-04T21:49:34.325Z,-9.03
2023-02-04T21:52:01.747Z,-8.82
2023-02-04T21:54:29.234Z,-8.89
2023-02-04T21:56:56.878Z,-9.04
2023-02-04T21:59:25.520Z,-9.09
2023-02-04T22:01:53.168Z,-9.04
2023-02-04T22:04:20.736Z,-9.34
2023-02-04T22:06:48.167Z,-9.40
2023-02-04T22:09:16.218Z,-9.74
2023-02-04T22:11:43.997Z,-10.00
2023-02-04T22:14:11.522Z,-10.43
2023-02-04T22:16:38.979Z,-10.63
2023-02-04T22:19:06.468Z,-10.66
2023-02-04T22:21:35.124Z,-10.78
2023-02-04T22:24:02.675Z,-10.48
2023-02-04T22:26:30.136Z,-10.51
2023-02-04T22:28:57.834Z,-10.50
2023-02-04T22:31:25.628Z,-10.57
2023-02-04T22:33:53.115Z,-10.31
2023-02-04T22:36:20.595Z,-10.66
2023-02-04T22:38:48.182Z,-10.36
2023-02-04T22:41:15.627Z,-10.26
2023-02-04T22:43:43.133Z,-10.23
2023-02-04T22:46:10.619Z,-10.23
2023-02-04T22:48:38.102Z,-10.09
2023-02-04T22:51:05.690Z,-10.16
2023-02-04T22:53:33.208Z,-10.60
2023-02-04T22:56:00.680Z,-10.65
2023-02-04T22:58:28.164Z,-10.60
2023-02-04T23:00:55.645Z,-10.69
2023-02-04T23:03:23.312Z,-10.71
2023-02-04T23:05:50.974Z,-10.77
2023-02-04T23:08:18.724Z,-10.66
2023-02-04T23:10:46.706Z,-10.65
2023-02-04T23:13:14.453Z,-10.59
2023-02-04T23:15:41.988Z,-10.65
2023-02-04T23:18:09.902Z,-10.82
2023-02-04T23:20:39.696Z,-10.62
2023-02-04T23:23:08.435Z,-10.66
2023-02-04T23:25:36.610Z,-10.53
2023-02-04T23:28:04.218Z,-10.74
2023-02-04T23:30:31.748Z,-10.67
2023-02-04T23:32:59.188Z,-10.74
2023-02-04T23:35:26.871Z,-10.88
2023-02-04T23:37:54.315Z,-10.87
2023-02-04T23:40:21.886Z,-10.79
2023-02-04T23:42:49.372Z,-10.58
2023-02-04T23:45:17.088Z,-10.60
2023-02-04T23:47:44.576Z,-10.63
2023-02-04T23:50:12.172Z,-10.62
2023-02-04T23:52:39.664Z,-10.57
2023-02-04T23:55:07.311Z,-10.47
2023-02-04T23:57:34.830Z,-10.49
